sensor_id;sensor_type;location;lat;lon;timestamp;P1;durP1;ratioP1;P2;durP2;ratioP2
13026;SDS011;6580;42.680;23.324;2023-02-21T00:00:44;8.63;;;5.90;;
13026;SDS011;6580;42.680;23.324;2023-02-21T00:03:29;6.53;;;5.83;;
13026;SDS011;6580;42.680;23.324;2023-02-21T00:06:18;9.43;;;6.60;;
13026;SDS011;6580;42.680;23.324;2023-02-21T00:09:02;6.40;;;5.37;;
13026;SDS011;6580;42.680;23.324;2023-02-21T00:11:47;7.43;;;5.23;;
13026;SDS011;6580;42.680;23.324;2023-02-21T00:14:31;6.63;;;5.10;;
13026;SDS011;6580;42.680;23.324;2023-02-21T00:17:16;7.33;;;5.77;;
13026;SDS011;6580;42.680;23.324;2023-02-21T00:20:01;6.67;;;5.20;;
13026;SDS011;6580;42.680;23.324;2023-02-21T00:22:48;7.43;;;5.27;;
13026;SDS011;6580;42.680;23.324;2023-02-21T00:25:34;7.73;;;5.47;;
13026;SDS011;6580;42.680;23.324;2023-02-21T00:28:17;6.43;;;4.90;;
13026;SDS011;6580;42.680;23.324;2023-02-21T00:31:03;8.27;;;5.47;;
13026;SDS011;6580;42.680;23.324;2023-02-21T00:33:49;5.93;;;5.30;;
13026;SDS011;6580;42.680;23.324;2023-02-21T00:36:33;8.07;;;5.23;;
13026;SDS011;6580;42.680;23.324;2023-02-21T00:39:19;6.77;;;5.13;;
13026;SDS011;6580;42.680;23.324;2023-02-21T00:42:05;8.67;;;5.10;;
13026;SDS011;6580;42.680;23.324;2023-02-21T00:44:51;6.83;;;5.07;;
13026;SDS011;6580;42.680;23.324;2023-02-21T00:47:37;7.37;;;5.23;;
13026;SDS011;6580;42.680;23.324;2023-02-21T00:50:21;7.03;;;5.20;;
13026;SDS011;6580;42.680;23.324;2023-02-21T00:53:07;7.07;;;5.37;;
13026;SDS011;6580;42.680;23.324;2023-02-21T00:55:53;7.13;;;5.00;;
13026;SDS011;6580;42.680;23.324;2023-02-21T00:58:37;7.10;;;4.73;;
13026;SDS011;6580;42.680;23.324;2023-02-21T01:01:22;7.73;;;5.10;;
13026;SDS011;6580;42.680;23.324;2023-02-21T01:04:07;6.83;;;4.40;;
13026;SDS011;6580;42.680;23.324;2023-02-21T01:06:51;9.33;;;5.50;;
13026;SDS011;6580;42.680;23.324;2023-02-21T01:09:36;7.13;;;5.23;;
13026;SDS011;6580;42.680;23.324;2023-02-21T01:12:24;7.13;;;5.30;;
13026;SDS011;6580;42.680;23.324;2023-02-21T01:15:09;5.03;;;3.83;;
13026;SDS011;6580;42.680;23.324;2023-02-21T01:17:53;6.57;;;4.77;;
13026;SDS011;6580;42.680;23.324;2023-02-21T01:20:37;6.40;;;4.50;;
13026;SDS011;6580;42.680;23.324;2023-02-21T01:23:21;6.33;;;4.80;;
13026;SDS011;6580;42.680;23.324;2023-02-21T01:26:07;6.43;;;4.60;;
13026;SDS011;6580;42.680;23.324;2023-02-21T01:28:53;7.33;;;5.17;;
13026;SDS011;6580;42.680;23.324;2023-02-21T01:31:39;4.87;;;4.30;;
13026;SDS011;6580;42.680;23.324;2023-02-21T01:34:23;6.47;;;4.83;;
13026;SDS011;6580;42.680;23.324;2023-02-21T01:37:07;5.97;;;4.87;;
13026;SDS011;6580;42.680;23.324;2023-02-21T01:39:51;5.07;;;4.47;;
13026;SDS011;6580;42.680;23.324;2023-02-21T01:42:36;6.23;;;4.90;;
13026;SDS011;6580;42.680;23.324;2023-02-21T01:48:26;7.90;;;4.10;;
13026;SDS011;6580;42.680;23.324;2023-02-21T01:51:14;8.03;;;4.60;;
13026;SDS011;6580;42.680;23.324;2023-02-21T01:54:01;5.13;;;3.83;;
13026;SDS011;6580;42.680;23.324;2023-02-21T01:56:46;4.30;;;3.77;;
13026;SDS011;6580;42.680;23.324;2023-02-21T01:59:31;6.17;;;4.90;;
13026;SDS011;6580;42.680;23.324;2023-02-21T02:02:18;5.23;;;3.93;;
13026;SDS011;6580;42.680;23.324;2023-02-21T02:05:10;4.83;;;3.60;;
13026;SDS011;6580;42.680;23.324;2023-02-21T02:07:58;5.40;;;4.00;;
13026;SDS011;6580;42.680;23.324;2023-02-21T02:10:44;5.10;;;4.00;;
13026;SDS011;6580;42.680;23.324;2023-02-21T02:13:49;4.53;;;3.70;;
13026;SDS011;6580;42.680;23.324;2023-02-21T02:16:30;4.17;;;3.60;;
13026;SDS011;6580;42.680;23.324;2023-02-21T02:19:15;4.50;;;4.10;;
13026;SDS011;6580;42.680;23.324;2023-02-21T02:25:08;3.53;;;3.17;;
13026;SDS011;6580;42.680;23.324;2023-02-21T02:27:50;4.77;;;3.33;;
13026;SDS011;6580;42.680;23.324;2023-02-21T02:30:33;4.13;;;3.03;;
13026;SDS011;6580;42.680;23.324;2023-02-21T02:36:24;5.77;;;3.40;;
13026;SDS011;6580;42.680;23.324;2023-02-21T02:38:57;4.73;;;3.40;;
13026;SDS011;6580;42.680;23.324;2023-02-21T02:41:32;4.50;;;3.50;;
13026;SDS011;6580;42.680;23.324;2023-02-21T02:44:17;5.23;;;2.97;;
13026;SDS011;6580;42.680;23.324;2023-02-21T02:46:50;2.87;;;2.37;;
13026;SDS011;6580;42.680;23.324;2023-02-21T02:49:25;4.50;;;3.30;;
13026;SDS011;6580;42.680;23.324;2023-02-21T02:52:03;2.93;;;2.67;;
13026;SDS011;6580;42.680;23.324;2023-02-21T02:54:33;3.70;;;3.40;;
13026;SDS011;6580;42.680;23.324;2023-02-21T02:57:01;2.73;;;2.47;;
13026;SDS011;6580;42.680;23.324;2023-02-21T02:59:38;5.83;;;3.63;;
13026;SDS011;6580;42.680;23.324;2023-02-21T03:02:22;4.40;;;3.67;;
13026;SDS011;6580;42.680;23.324;2023-02-21T03:05:07;2.90;;;2.63;;
13026;SDS011;6580;42.680;23.324;2023-02-21T03:07:49;4.27;;;2.57;;
13026;SDS011;6580;42.680;23.324;2023-02-21T03:10:26;3.10;;;2.77;;
13026;SDS011;6580;42.680;23.324;2023-02-21T03:13:03;3.13;;;2.90;;
13026;SDS011;6580;42.680;23.324;2023-02-21T03:15:44;3.83;;;2.73;;
13026;SDS011;6580;42.680;23.324;2023-02-21T03:18:17;4.40;;;2.40;;
13026;SDS011;6580;42.680;23.324;2023-02-21T03:20:55;5.17;;;3.20;;
13026;SDS011;6580;42.680;23.324;2023-02-21T03:23:25;4.13;;;3.67;;
13026;SDS011;6580;42.680;23.324;2023-02-21T03:25:55;5.00;;;3.10;;
13026;SDS011;6580;42.680;23.324;2023-02-21T03:28:30;3.57;;;3.00;;
13026;SDS011;6580;42.680;23.324;2023-02-21T03:31:02;2.80;;;2.30;;
13026;SDS011;6580;42.680;23.324;2023-02-21T03:33:33;2.50;;;2.40;;
13026;SDS011;6580;42.680;23.324;2023-02-21T03:36:02;3.17;;;2.83;;
13026;SDS011;6580;42.680;23.324;2023-02-21T03:38:35;3.87;;;3.53;;
13026;SDS011;6580;42.680;23.324;2023-02-21T03:41:04;3.47;;;2.50;;
13026;SDS011;6580;42.680;23.324;2023-02-21T03:43:34;4.10;;;2.67;;
13026;SDS011;6580;42.680;23.324;2023-02-21T03:46:05;3.27;;;2.87;;
13026;SDS011;6580;42.680;23.324;2023-02-21T03:48:35;2.70;;;2.50;;
13026;SDS011;6580;42.680;23.324;2023-02-21T03:51:02;4.73;;;3.27;;
13026;SDS011;6580;42.680;23.324;2023-02-21T03:53:37;4.23;;;3.47;;
13026;SDS011;6580;42.680;23.324;2023-02-21T03:56:06;4.17;;;3.40;;
13026;SDS011;6580;42.680;23.324;2023-02-21T03:58:33;3.53;;;3.00;;
13026;SDS011;6580;42.680;23.324;2023-02-21T04:01:00;3.73;;;3.30;;
13026;SDS011;6580;42.680;23.324;2023-02-21T04:03:29;6.03;;;3.97;;
13026;SDS011;6580;42.680;23.324;2023-02-21T04:05:57;6.10;;;3.37;;
13026;SDS011;6580;42.680;23.324;2023-02-21T04:08:28;5.30;;;3.30;;
13026;SDS011;6580;42.680;23.324;2023-02-21T04:10:56;4.27;;;3.20;;
13026;SDS011;6580;42.680;23.324;2023-02-21T04:13:23;3.63;;;3.27;;
13026;SDS011;6580;42.680;23.324;2023-02-21T04:15:51;3.33;;;2.87;;
13026;SDS011;6580;42.680;23.324;2023-02-21T04:18:19;3.80;;;3.00;;
13026;SDS011;6580;42.680;23.324;2023-02-21T04:20:46;3.43;;;3.13;;
13026;SDS011;6580;42.680;23.324;2023-02-21T04:23:17;4.63;;;3.17;;
13026;SDS011;6580;42.680;23.324;2023-02-21T04:25:46;3.87;;;3.03;;
13026;SDS011;6580;42.680;23.324;2023-02-21T04:28:15;5.10;;;2.70;;
13026;SDS011;6580;42.680;23.324;2023-02-21T04:30:42;3.93;;;3.20;;
13026;SDS011;6580;42.680;23.324;2023-02-21T04:33:12;3.77;;;3.47;;
13026;SDS011;6580;42.680;23.324;2023-02-21T04:35:42;3.27;;;2.97;;
13026;SDS011;6580;42.680;23.324;2023-02-21T04:38:14;5.43;;;2.90;;
13026;SDS011;6580;42.680;23.324;2023-02-21T04:40:42;4.80;;;3.20;;
13026;SDS011;6580;42.680;23.324;2023-02-21T04:43:10;3.27;;;2.97;;
13026;SDS011;6580;42.680;23.324;2023-02-21T04:45:40;4.83;;;3.00;;
13026;SDS011;6580;42.680;23.324;2023-02-21T04:48:10;3.10;;;2.80;;
13026;SDS011;6580;42.680;23.324;2023-02-21T04:50:44;3.70;;;2.53;;
13026;SDS011;6580;42.680;23.324;2023-02-21T04:53:13;2.93;;;2.70;;
13026;SDS011;6580;42.680;23.324;2023-02-21T04:55:41;5.00;;;2.90;;
13026;SDS011;6580;42.680;23.324;2023-02-21T04:58:11;3.60;;;2.70;;
13026;SDS011;6580;42.680;23.324;2023-02-21T05:00:39;5.70;;;4.17;;
13026;SDS011;6580;42.680;23.324;2023-02-21T05:03:08;5.30;;;3.77;;
13026;SDS011;6580;42.680;23.324;2023-02-21T05:05:43;5.07;;;3.30;;
13026;SDS011;6580;42.680;23.324;2023-02-21T05:08:11;5.80;;;3.63;;
13026;SDS011;6580;42.680;23.324;2023-02-21T05:10:40;6.00;;;3.37;;
13026;SDS011;6580;42.680;23.324;2023-02-21T05:13:07;4.30;;;3.90;;
13026;SDS011;6580;42.680;23.324;2023-02-21T05:15:34;6.07;;;4.07;;
13026;SDS011;6580;42.680;23.324;2023-02-21T05:18:03;9.77;;;5.43;;
13026;SDS011;6580;42.680;23.324;2023-02-21T05:20:30;7.57;;;5.07;;
13026;SDS011;6580;42.680;23.324;2023-02-21T05:22:58;7.03;;;4.10;;
13026;SDS011;6580;42.680;23.324;2023-02-21T05:25:25;4.83;;;3.93;;
13026;SDS011;6580;42.680;23.324;2023-02-21T05:27:52;5.57;;;4.13;;
13026;SDS011;6580;42.680;23.324;2023-02-21T05:30:20;7.23;;;4.27;;
13026;SDS011;6580;42.680;23.324;2023-02-21T05:32:49;5.77;;;4.13;;
13026;SDS011;6580;42.680;23.324;2023-02-21T05:35:19;6.80;;;4.30;;
13026;SDS011;6580;42.680;23.324;2023-02-21T05:37:46;6.03;;;4.00;;
13026;SDS011;6580;42.680;23.324;2023-02-21T05:40:16;7.07;;;4.43;;
13026;SDS011;6580;42.680;23.324;2023-02-21T05:42:46;4.03;;;3.70;;
13026;SDS011;6580;42.680;23.324;2023-02-21T05:45:14;4.63;;;3.70;;
13026;SDS011;6580;42.680;23.324;2023-02-21T05:47:42;4.87;;;3.30;;
13026;SDS011;6580;42.680;23.324;2023-02-21T05:50:13;5.30;;;3.77;;
13026;SDS011;6580;42.680;23.324;2023-02-21T05:52:42;5.70;;;3.07;;
13026;SDS011;6580;42.680;23.324;2023-02-21T05:55:09;4.97;;;3.77;;
13026;SDS011;6580;42.680;23.324;2023-02-21T05:57:39;3.77;;;3.43;;
13026;SDS011;6580;42.680;23.324;2023-02-21T06:00:12;6.70;;;3.57;;
13026;SDS011;6580;42.680;23.324;2023-02-21T06:02:41;5.87;;;3.37;;
13026;SDS011;6580;42.680;23.324;2023-02-21T06:05:10;5.80;;;3.73;;
13026;SDS011;6580;42.680;23.324;2023-02-21T06:07:39;5.27;;;4.13;;
13026;SDS011;6580;42.680;23.324;2023-02-21T06:10:08;7.07;;;3.60;;
13026;SDS011;6580;42.680;23.324;2023-02-21T06:12:35;4.40;;;3.90;;
13026;SDS011;6580;42.680;23.324;2023-02-21T06:15:04;5.47;;;3.57;;
13026;SDS011;6580;42.680;23.324;2023-02-21T06:17:35;4.87;;;3.90;;
13026;SDS011;6580;42.680;23.324;2023-02-21T06:20:03;7.33;;;3.97;;
13026;SDS011;6580;42.680;23.324;2023-02-21T06:22:31;5.03;;;3.77;;
13026;SDS011;6580;42.680;23.324;2023-02-21T06:24:58;6.80;;;4.03;;
13026;SDS011;6580;42.680;23.324;2023-02-21T06:27:28;5.20;;;3.73;;
13026;SDS011;6580;42.680;23.324;2023-02-21T06:29:55;6.20;;;4.30;;
13026;SDS011;6580;42.680;23.324;2023-02-21T06:32:23;4.90;;;3.90;;
13026;SDS011;6580;42.680;23.324;2023-02-21T06:34:49;4.70;;;4.03;;
13026;SDS011;6580;42.680;23.324;2023-02-21T06:37:16;6.43;;;3.90;;
13026;SDS011;6580;42.680;23.324;2023-02-21T06:39:44;7.17;;;4.27;;
13026;SDS011;6580;42.680;23.324;2023-02-21T06:42:11;6.90;;;4.30;;
13026;SDS011;6580;42.680;23.324;2023-02-21T06:44:43;6.93;;;3.97;;
13026;SDS011;6580;42.680;23.324;2023-02-21T06:47:10;6.03;;;3.93;;
13026;SDS011;6580;42.680;23.324;2023-02-21T06:49:37;4.80;;;3.70;;
13026;SDS011;6580;42.680;23.324;2023-02-21T06:52:04;7.60;;;4.23;;
13026;SDS011;6580;42.680;23.324;2023-02-21T06:54:32;4.17;;;3.47;;
13026;SDS011;6580;42.680;23.324;2023-02-21T06:56:59;6.53;;;4.20;;
13026;SDS011;6580;42.680;23.324;2023-02-21T06:59:26;4.43;;;3.60;;
13026;SDS011;6580;42.680;23.324;2023-02-21T07:01:55;4.03;;;3.63;;
13026;SDS011;6580;42.680;23.324;2023-02-21T07:04:22;5.50;;;3.33;;
13026;SDS011;6580;42.680;23.324;2023-02-21T07:06:50;4.17;;;3.33;;
13026;SDS011;6580;42.680;23.324;2023-02-21T07:09:18;5.33;;;3.87;;
13026;SDS011;6580;42.680;23.324;2023-02-21T07:11:45;4.90;;;4.03;;
13026;SDS011;6580;42.680;23.324;2023-02-21T07:14:12;8.37;;;4.40;;
13026;SDS011;6580;42.680;23.324;2023-02-21T07:16:39;5.20;;;3.43;;
13026;SDS011;6580;42.680;23.324;2023-02-21T07:19:07;5.47;;;4.07;;
13026;SDS011;6580;42.680;23.324;2023-02-21T07:21:39;5.30;;;3.70;;
13026;SDS011;6580;42.680;23.324;2023-02-21T07:24:06;5.30;;;3.60;;
13026;SDS011;6580;42.680;23.324;2023-02-21T07:26:36;4.57;;;3.70;;
13026;SDS011;6580;42.680;23.324;2023-02-21T07:29:03;5.07;;;3.77;;
13026;SDS011;6580;42.680;23.324;2023-02-21T07:31:31;7.63;;;4.00;;
13026;SDS011;6580;42.680;23.324;2023-02-21T07:33:58;5.67;;;4.10;;
13026;SDS011;6580;42.680;23.324;2023-02-21T07:36:30;4.17;;;3.77;;
13026;SDS011;6580;42.680;23.324;2023-02-21T07:38:57;5.37;;;4.53;;
13026;SDS011;6580;42.680;23.324;2023-02-21T07:41:24;4.13;;;3.07;;
13026;SDS011;6580;42.680;23.324;2023-02-21T07:43:51;4.60;;;3.27;;
13026;SDS011;6580;42.680;23.324;2023-02-21T07:46:18;4.00;;;3.60;;
13026;SDS011;6580;42.680;23.324;2023-02-21T07:48:46;5.27;;;3.80;;
13026;SDS011;6580;42.680;23.324;2023-02-21T07:51:16;6.67;;;4.00;;
13026;SDS011;6580;42.680;23.324;2023-02-21T07:53:52;6.37;;;3.80;;
13026;SDS011;6580;42.680;23.324;2023-02-21T07:56:19;5.30;;;3.90;;
13026;SDS011;6580;42.680;23.324;2023-02-21T07:58:46;6.40;;;5.80;;
13026;SDS011;6580;42.680;23.324;2023-02-21T08:01:14;7.70;;;4.13;;
13026;SDS011;6580;42.680;23.324;2023-02-21T08:03:41;8.00;;;4.67;;
13026;SDS011;6580;42.680;23.324;2023-02-21T08:06:08;7.90;;;4.03;;
13026;SDS011;6580;42.680;23.324;2023-02-21T08:08:35;5.47;;;4.50;;
13026;SDS011;6580;42.680;23.324;2023-02-21T08:11:06;8.30;;;4.07;;
13026;SDS011;6580;42.680;23.324;2023-02-21T08:13:34;8.43;;;4.63;;
13026;SDS011;6580;42.680;23.324;2023-02-21T08:16:01;4.90;;;3.97;;
13026;SDS011;6580;42.680;23.324;2023-02-21T08:18:28;7.90;;;5.37;;
13026;SDS011;6580;42.680;23.324;2023-02-21T08:20:55;5.43;;;4.20;;
13026;SDS011;6580;42.680;23.324;2023-02-21T08:23:22;6.70;;;4.57;;
13026;SDS011;6580;42.680;23.324;2023-02-21T08:25:49;7.60;;;4.67;;
13026;SDS011;6580;42.680;23.324;2023-02-21T08:28:18;6.13;;;4.70;;
13026;SDS011;6580;42.680;23.324;2023-02-21T08:30:45;6.57;;;4.50;;
13026;SDS011;6580;42.680;23.324;2023-02-21T08:33:12;7.90;;;4.70;;
13026;SDS011;6580;42.680;23.324;2023-02-21T08:35:39;7.77;;;4.53;;
13026;SDS011;6580;42.680;23.324;2023-02-21T08:38:05;5.70;;;4.80;;
13026;SDS011;6580;42.680;23.324;2023-02-21T08:40:34;7.43;;;5.30;;
13026;SDS011;6580;42.680;23.324;2023-02-21T08:43:01;7.50;;;5.00;;
13026;SDS011;6580;42.680;23.324;2023-02-21T08:45:35;8.07;;;4.87;;
13026;SDS011;6580;42.680;23.324;2023-02-21T08:48:03;8.80;;;4.77;;
13026;SDS011;6580;42.680;23.324;2023-02-21T08:50:30;7.13;;;4.70;;
13026;SDS011;6580;42.680;23.324;2023-02-21T08:53:00;6.60;;;5.40;;
13026;SDS011;6580;42.680;23.324;2023-02-21T08:55:28;9.07;;;5.70;;
13026;SDS011;6580;42.680;23.324;2023-02-21T08:57:58;10.07;;;4.97;;
13026;SDS011;6580;42.680;23.324;2023-02-21T09:00:25;5.60;;;5.00;;
13026;SDS011;6580;42.680;23.324;2023-02-21T09:02:54;7.30;;;5.20;;
13026;SDS011;6580;42.680;23.324;2023-02-21T09:05:25;10.20;;;4.90;;
13026;SDS011;6580;42.680;23.324;2023-02-21T09:07:55;8.70;;;5.37;;
13026;SDS011;6580;42.680;23.324;2023-02-21T09:10:26;6.80;;;5.03;;
13026;SDS011;6580;42.680;23.324;2023-02-21T09:12:55;8.63;;;6.30;;
13026;SDS011;6580;42.680;23.324;2023-02-21T09:15:22;6.10;;;5.40;;
13026;SDS011;6580;42.680;23.324;2023-02-21T09:17:50;9.37;;;4.90;;
13026;SDS011;6580;42.680;23.324;2023-02-21T09:20:22;8.70;;;5.23;;
13026;SDS011;6580;42.680;23.324;2023-02-21T09:22:50;8.07;;;5.10;;
13026;SDS011;6580;42.680;23.324;2023-02-21T09:25:20;7.43;;;4.83;;
13026;SDS011;6580;42.680;23.324;2023-02-21T09:27:51;7.27;;;5.03;;
13026;SDS011;6580;42.680;23.324;2023-02-21T09:30:19;7.53;;;5.17;;
13026;SDS011;6580;42.680;23.324;2023-02-21T09:32:50;6.43;;;4.90;;
13026;SDS011;6580;42.680;23.324;2023-02-21T09:35:19;9.80;;;5.23;;
13026;SDS011;6580;42.680;23.324;2023-02-21T09:37:46;5.32;;;4.82;;
13026;SDS011;6580;42.680;23.324;2023-02-21T09:40:14;5.07;;;4.43;;
13026;SDS011;6580;42.680;23.324;2023-02-21T09:42:47;7.43;;;5.13;;
13026;SDS011;6580;42.680;23.324;2023-02-21T09:45:17;6.10;;;4.88;;
13026;SDS011;6580;42.680;23.324;2023-02-21T09:47:47;5.43;;;4.72;;
13026;SDS011;6580;42.680;23.324;2023-02-21T09:50:22;5.88;;;4.00;;
13026;SDS011;6580;42.680;23.324;2023-02-21T09:52:56;6.80;;;4.28;;
13026;SDS011;6580;42.680;23.324;2023-02-21T09:55:27;7.35;;;4.13;;
13026;SDS011;6580;42.680;23.324;2023-02-21T09:57:57;5.50;;;4.47;;
13026;SDS011;6580;42.680;23.324;2023-02-21T10:00:25;5.18;;;4.30;;
13026;SDS011;6580;42.680;23.324;2023-02-21T10:03:12;6.35;;;5.05;;
13026;SDS011;6580;42.680;23.324;2023-02-21T10:05:55;4.93;;;4.30;;
13026;SDS011;6580;42.680;23.324;2023-02-21T10:08:30;7.35;;;5.28;;
13026;SDS011;6580;42.680;23.324;2023-02-21T10:11:06;6.03;;;4.15;;
13026;SDS011;6580;42.680;23.324;2023-02-21T10:13:51;5.65;;;4.50;;
13026;SDS011;6580;42.680;23.324;2023-02-21T10:16:23;5.80;;;4.80;;
13026;SDS011;6580;42.680;23.324;2023-02-21T10:19:02;6.32;;;4.53;;
13026;SDS011;6580;42.680;23.324;2023-02-21T10:21:37;5.15;;;4.22;;
13026;SDS011;6580;42.680;23.324;2023-02-21T10:24:09;5.78;;;4.20;;
13026;SDS011;6580;42.680;23.324;2023-02-21T10:26:39;5.20;;;3.85;;
13026;SDS011;6580;42.680;23.324;2023-02-21T10:29:17;6.22;;;4.40;;
13026;SDS011;6580;42.680;23.324;2023-02-21T10:31:47;4.55;;;4.00;;
13026;SDS011;6580;42.680;23.324;2023-02-21T10:34:19;5.82;;;4.47;;
13026;SDS011;6580;42.680;23.324;2023-02-21T10:36:54;47.25;;;26.23;;
13026;SDS011;6580;42.680;23.324;2023-02-21T10:39:30;20.75;;;13.98;;
13026;SDS011;6580;42.680;23.324;2023-02-21T10:42:02;8.82;;;6.88;;
13026;SDS011;6580;42.680;23.324;2023-02-21T10:44:30;6.78;;;5.32;;
13026;SDS011;6580;42.680;23.324;2023-02-21T10:47:03;6.68;;;5.53;;
13026;SDS011;6580;42.680;23.324;2023-02-21T10:49:35;3.70;;;3.40;;
13026;SDS011;6580;42.680;23.324;2023-02-21T10:52:11;2.13;;;2.03;;
13026;SDS011;6580;42.680;23.324;2023-02-21T10:54:41;2.22;;;2.03;;
13026;SDS011;6580;42.680;23.324;2023-02-21T10:57:28;2.22;;;2.03;;
13026;SDS011;6580;42.680;23.324;2023-02-21T10:59:57;5.10;;;3.83;;
13026;SDS011;6580;42.680;23.324;2023-02-21T11:05:21;2.05;;;1.90;;
13026;SDS011;6580;42.680;23.324;2023-02-21T11:07:58;2.33;;;1.90;;
13026;SDS011;6580;42.680;23.324;2023-02-21T11:10:31;2.63;;;2.33;;
13026;SDS011;6580;42.680;23.324;2023-02-21T11:13:06;1.95;;;1.48;;
13026;SDS011;6580;42.680;23.324;2023-02-21T11:15:40;2.17;;;1.98;;
13026;SDS011;6580;42.680;23.324;2023-02-21T11:18:13;2.67;;;2.47;;
13026;SDS011;6580;42.680;23.324;2023-02-21T11:20:41;1.98;;;1.77;;
13026;SDS011;6580;42.680;23.324;2023-02-21T11:26:04;1.75;;;1.45;;
13026;SDS011;6580;42.680;23.324;2023-02-21T11:28:35;1.10;;;1.10;;
13026;SDS011;6580;42.680;23.324;2023-02-21T11:31:05;1.55;;;1.45;;
13026;SDS011;6580;42.680;23.324;2023-02-21T11:33:49;2.00;;;1.83;;
13026;SDS011;6580;42.680;23.324;2023-02-21T11:36:25;1.58;;;1.48;;
13026;SDS011;6580;42.680;23.324;2023-02-21T11:39:03;1.67;;;1.60;;
13026;SDS011;6580;42.680;23.324;2023-02-21T11:41:35;1.60;;;1.50;;
13026;SDS011;6580;42.680;23.324;2023-02-21T11:44:22;2.13;;;1.95;;
13026;SDS011;6580;42.680;23.324;2023-02-21T11:46:55;2.72;;;2.05;;
13026;SDS011;6580;42.680;23.324;2023-02-21T11:49:35;2.15;;;1.80;;
13026;SDS011;6580;42.680;23.324;2023-02-21T11:52:08;7.70;;;5.35;;
13026;SDS011;6580;42.680;23.324;2023-02-21T11:54:40;3.47;;;3.17;;
13026;SDS011;6580;42.680;23.324;2023-02-21T11:57:21;4.63;;;2.03;;
13026;SDS011;6580;42.680;23.324;2023-02-21T11:59:54;1.40;;;1.30;;
13026;SDS011;6580;42.680;23.324;2023-02-21T12:02:38;1.60;;;1.55;;
13026;SDS011;6580;42.680;23.324;2023-02-21T12:05:31;2.95;;;2.50;;
13026;SDS011;6580;42.680;23.324;2023-02-21T12:08:12;2.47;;;2.30;;
13026;SDS011;6580;42.680;23.324;2023-02-21T12:10:58;6.07;;;5.28;;
13026;SDS011;6580;42.680;23.324;2023-02-21T12:13:40;2.60;;;2.40;;
13026;SDS011;6580;42.680;23.324;2023-02-21T12:16:18;2.42;;;2.22;;
13026;SDS011;6580;42.680;23.324;2023-02-21T12:18:57;1.98;;;1.88;;
13026;SDS011;6580;42.680;23.324;2023-02-21T12:21:47;2.03;;;1.83;;
13026;SDS011;6580;42.680;23.324;2023-02-21T12:24:29;1.50;;;1.40;;
13026;SDS011;6580;42.680;23.324;2023-02-21T12:27:12;1.90;;;1.70;;
13026;SDS011;6580;42.680;23.324;2023-02-21T12:29:48;3.00;;;1.92;;
13026;SDS011;6580;42.680;23.324;2023-02-21T12:32:32;1.50;;;1.40;;
13026;SDS011;6580;42.680;23.324;2023-02-21T12:35:17;2.92;;;2.05;;
13026;SDS011;6580;42.680;23.324;2023-02-21T12:38:02;4.68;;;3.30;;
13026;SDS011;6580;42.680;23.324;2023-02-21T12:40:35;6.95;;;6.25;;
13026;SDS011;6580;42.680;23.324;2023-02-21T12:46:00;2.40;;;2.20;;
13026;SDS011;6580;42.680;23.324;2023-02-21T12:48:35;4.20;;;2.50;;
13026;SDS011;6580;42.680;23.324;2023-02-21T12:51:07;1.95;;;1.80;;
13026;SDS011;6580;42.680;23.324;2023-02-21T12:53:42;1.88;;;1.77;;
13026;SDS011;6580;42.680;23.324;2023-02-21T12:56:16;2.13;;;1.92;;
13026;SDS011;6580;42.680;23.324;2023-02-21T12:58:49;1.95;;;1.83;;
13026;SDS011;6580;42.680;23.324;2023-02-21T13:01:24;2.65;;;2.42;;
13026;SDS011;6580;42.680;23.324;2023-02-21T13:03:59;3.42;;;3.05;;
13026;SDS011;6580;42.680;23.324;2023-02-21T13:06:35;4.47;;;3.97;;
13026;SDS011;6580;42.680;23.324;2023-02-21T13:09:09;3.05;;;2.78;;
13026;SDS011;6580;42.680;23.324;2023-02-21T13:11:45;3.78;;;3.15;;
13026;SDS011;6580;42.680;23.324;2023-02-21T13:14:22;3.15;;;2.88;;
13026;SDS011;6580;42.680;23.324;2023-02-21T13:16:57;3.25;;;3.05;;
13026;SDS011;6580;42.680;23.324;2023-02-21T13:19:26;2.40;;;2.20;;
13026;SDS011;6580;42.680;23.324;2023-02-21T13:25:34;1.77;;;1.67;;
13026;SDS011;6580;42.680;23.324;2023-02-21T13:28:11;1.63;;;1.52;;
13026;SDS011;6580;42.680;23.324;2023-02-21T13:30:44;2.30;;;2.03;;
13026;SDS011;6580;42.680;23.324;2023-02-21T13:33:23;1.90;;;1.80;;
13026;SDS011;6580;42.680;23.324;2023-02-21T13:35:52;1.80;;;1.70;;
13026;SDS011;6580;42.680;23.324;2023-02-21T13:38:23;3.08;;;1.75;;
13026;SDS011;6580;42.680;23.324;2023-02-21T13:41:01;3.67;;;1.80;;
13026;SDS011;6580;42.680;23.324;2023-02-21T13:43:31;1.90;;;1.80;;
13026;SDS011;6580;42.680;23.324;2023-02-21T13:52:25;1.75;;;1.65;;
13026;SDS011;6580;42.680;23.324;2023-02-21T13:55:25;2.50;;;2.30;;
13026;SDS011;6580;42.680;23.324;2023-02-21T14:00:54;3.15;;;2.42;;
13026;SDS011;6580;42.680;23.324;2023-02-21T14:03:29;2.63;;;2.15;;
13026;SDS011;6580;42.680;23.324;2023-02-21T14:09:11;2.17;;;1.90;;
13026;SDS011;6580;42.680;23.324;2023-02-21T14:11:43;2.35;;;1.88;;
13026;SDS011;6580;42.680;23.324;2023-02-21T14:14:21;1.63;;;1.52;;
13026;SDS011;6580;42.680;23.324;2023-02-21T14:16:51;2.85;;;2.65;;
13026;SDS011;6580;42.680;23.324;2023-02-21T14:19:29;2.88;;;2.20;;
13026;SDS011;6580;42.680;23.324;2023-02-21T14:22:01;3.10;;;1.80;;
13026;SDS011;6580;42.680;23.324;2023-02-21T14:24:33;2.15;;;2.05;;
13026;SDS011;6580;42.680;23.324;2023-02-21T14:30:21;2.83;;;1.67;;
13026;SDS011;6580;42.680;23.324;2023-02-21T14:32:59;2.42;;;2.17;;
13026;SDS011;6580;42.680;23.324;2023-02-21T14:35:35;1.77;;;1.67;;
13026;SDS011;6580;42.680;23.324;2023-02-21T14:38:14;1.60;;;1.50;;
13026;SDS011;6580;42.680;23.324;2023-02-21T14:40:53;2.30;;;2.10;;
13026;SDS011;6580;42.680;23.324;2023-02-21T14:43:48;2.03;;;1.92;;
13026;SDS011;6580;42.680;23.324;2023-02-21T14:46:41;1.92;;;1.83;;
13026;SDS011;6580;42.680;23.324;2023-02-21T14:49:33;2.28;;;2.10;;
13026;SDS011;6580;42.680;23.324;2023-02-21T14:52:32;1.75;;;1.58;;
13026;SDS011;6580;42.680;23.324;2023-02-21T14:55:17;1.70;;;1.60;;
13026;SDS011;6580;42.680;23.324;2023-02-21T15:01:02;2.83;;;2.00;;
13026;SDS011;6580;42.680;23.324;2023-02-21T15:03:36;2.15;;;1.95;;
13026;SDS011;6580;42.680;23.324;2023-02-21T15:06:10;2.60;;;2.35;;
13026;SDS011;6580;42.680;23.324;2023-02-21T15:08:43;8.07;;;4.68;;
13026;SDS011;6580;42.680;23.324;2023-02-21T15:14:12;3.00;;;2.50;;
13026;SDS011;6580;42.680;23.324;2023-02-21T15:16:51;3.40;;;2.88;;
13026;SDS011;6580;42.680;23.324;2023-02-21T15:19:27;3.92;;;3.15;;
13026;SDS011;6580;42.680;23.324;2023-02-21T15:25:12;4.30;;;3.00;;
13026;SDS011;6580;42.680;23.324;2023-02-21T15:27:52;6.65;;;5.25;;
13026;SDS011;6580;42.680;23.324;2023-02-21T15:30:23;3.70;;;3.30;;
13026;SDS011;6580;42.680;23.324;2023-02-21T15:32:56;3.45;;;2.60;;
13026;SDS011;6580;42.680;23.324;2023-02-21T15:35:25;2.67;;;2.42;;
13026;SDS011;6580;42.680;23.324;2023-02-21T15:37:57;4.88;;;3.80;;
13026;SDS011;6580;42.680;23.324;2023-02-21T15:40:27;6.68;;;3.38;;
13026;SDS011;6580;42.680;23.324;2023-02-21T15:42:57;5.72;;;3.83;;
13026;SDS011;6580;42.680;23.324;2023-02-21T15:45:25;6.68;;;4.18;;
13026;SDS011;6580;42.680;23.324;2023-02-21T15:47:58;4.32;;;3.80;;
13026;SDS011;6580;42.680;23.324;2023-02-21T15:50:29;4.05;;;3.55;;
13026;SDS011;6580;42.680;23.324;2023-02-21T15:53:10;8.20;;;4.85;;
13026;SDS011;6580;42.680;23.324;2023-02-21T15:55:38;3.92;;;3.63;;
13026;SDS011;6580;42.680;23.324;2023-02-21T15:58:11;4.78;;;3.05;;
13026;SDS011;6580;42.680;23.324;2023-02-21T16:00:41;7.80;;;3.83;;
13026;SDS011;6580;42.680;23.324;2023-02-21T16:03:27;5.25;;;3.90;;
13026;SDS011;6580;42.680;23.324;2023-02-21T16:06:11;4.93;;;3.70;;
13026;SDS011;6580;42.680;23.324;2023-02-21T16:08:57;6.25;;;4.78;;
13026;SDS011;6580;42.680;23.324;2023-02-21T16:11:37;7.18;;;4.30;;
13026;SDS011;6580;42.680;23.324;2023-02-21T16:14:14;8.52;;;4.80;;
13026;SDS011;6580;42.680;23.324;2023-02-21T16:16:43;6.38;;;4.22;;